createdAt,value
2023-04-02T00:00:16.753Z,68.22
2023-04-02T00:02:54.186Z,68.19
2023-04-02T00:05:26.824Z,67.69
2023-04-02T00:07:54.736Z,68.65
2023-04-02T00:10:39.697Z,71.15
2023-04-02T00:13:24.716Z,68.75
2023-04-02T00:15:57.169Z,68.28
2023-04-02T00:18:26.029Z,68.29
2023-04-02T00:21:20.203Z,66.31
2023-04-02T00:23:47.021Z,65.95
2023-04-02T00:26:30.347Z,65.90
2023-04-02T00:28:58.124Z,65.09
2023-04-02T00:31:25.677Z,63.86
2023-04-02T00:33:53.915Z,63.22
2023-04-02T00:36:24.701Z,63.88
2023-04-02T00:38:51.952Z,64.62
2023-04-02T00:41:25.454Z,64.26
2023-04-02T00:43:52.819Z,64.74
2023-04-02T00:46:25.248Z,65.24
2023-04-02T00:48:56.243Z,66.56
2023-04-02T00:51:49.229Z,69.27
2023-04-02T00:54:21.735Z,69.16
2023-04-02T00:56:54.013Z,68.26
2023-04-02T00:59:42.933Z,67.23
2023-04-02T01:02:15.549Z,66.26
2023-04-02T01:04:42.365Z,66.51
2023-04-02T01:07:11.617Z,66.54
2023-04-02T01:10:11.083Z,67.17
2023-04-02T01:12:55.210Z,67.89
2023-04-02T01:15:50.080Z,67.43
2023-04-02T01:18:38.180Z,69.59
2023-04-02T01:21:23.921Z,68.27
2023-04-02T01:24:06.162Z,67.50
2023-04-02T01:27:00.224Z,69.06
2023-04-02T01:29:57.426Z,66.73
2023-04-02T01:32:28.022Z,64.96
2023-04-02T01:34:56.472Z,64.71
2023-04-02T01:37:42.050Z,66.76
2023-04-02T01:40:20.459Z,71.48
2023-04-02T01:43:12.702Z,74.14
2023-04-02T01:45:39.444Z,74.35
2023-04-02T01:48:15.156Z,74.94
2023-04-02T01:50:44.904Z,74.63
2023-04-02T01:53:17.896Z,71.61
2023-04-02T01:55:51.860Z,71.15
2023-04-02T01:58:26.987Z,68.65
2023-04-02T02:01:03.161Z,66.83
2023-04-02T02:03:30.855Z,67.85
2023-04-02T02:05:59.485Z,66.74
2023-04-02T02:08:46.188Z,66.39
2023-04-02T02:11:17.779Z,65.98
2023-04-02T02:14:01.490Z,67.90
2023-04-02T02:16:30.419Z,69.00
2023-04-02T02:19:02.564Z,69.99
2023-04-02T02:21:39.448Z,71.38
2023-04-02T02:24:23.322Z,69.88
2023-04-02T02:27:16.251Z,68.21
2023-04-02T02:29:46.880Z,68.29
2023-04-02T02:32:17.712Z,69.06
2023-04-02T02:35:01.593Z,70.04
2023-04-02T02:37:39.922Z,70.26
2023-04-02T02:40:30.036Z,69.58
2023-04-02T02:43:06.231Z,70.58
2023-04-02T02:45:39.005Z,71.17
2023-04-02T02:48:13.832Z,69.41
2023-04-02T02:50:42.649Z,71.65
2023-04-02T02:53:19.228Z,70.31
2023-04-02T02:55:50.496Z,70.14
2023-04-02T02:58:23.899Z,71.30
2023-04-02T03:00:50.765Z,71.00
2023-04-02T03:03:23.267Z,69.72
2023-04-02T03:06:00.198Z,68.69
2023-04-02T03:08:39.244Z,66.69
2023-04-02T03:11:40.360Z,65.96
2023-04-02T03:14:24.937Z,64.93
2023-04-02T03:17:04.360Z,64.29
2023-04-02T03:19:46.335Z,63.87
2023-04-02T03:22:31.308Z,68.05
2023-04-02T03:25:12.824Z,67.23
2023-04-02T03:27:46.385Z,66.08
2023-04-02T03:30:43.330Z,66.26
2023-04-02T03:33:21.779Z,65.22
2023-04-02T03:35:57.854Z,65.48
2023-04-02T03:38:32.777Z,65.56
2023-04-02T03:40:59.352Z,65.08
2023-04-02T03:43:39.520Z,64.43
2023-04-02T03:46:27.025Z,64.74
2023-04-02T03:49:05.095Z,66.44
2023-04-02T03:51:49.156Z,65.75
2023-04-02T03:54:17.220Z,66.30
2023-04-02T03:56:46.508Z,66.83
2023-04-02T03:59:35.071Z,68.29
2023-04-02T04:02:13.425Z,67.44
2023-04-02T04:04:44.785Z,65.80
2023-04-02T04:07:31.017Z,65.24
2023-04-02T04:10:01.479Z,65.21
2023-04-02T04:12:40.094Z,64.67
2023-04-02T04:15:25.740Z,64.68
2023-04-02T04:18:13.815Z,62.81
2023-04-02T04:20:50.391Z,62.86
2023-04-02T04:23:22.876Z,63.84
2023-04-02T04:25:58.108Z,64.24
2023-04-02T04:28:40.210Z,64.31
2023-04-02T04:31:24.004Z,64.44
2023-04-02T04:33:59.454Z,65.67
2023-04-02T04:36:33.461Z,65.42
2023-04-02T04:39:08.932Z,66.99
2023-04-02T04:41:40.621Z,66.14
2023-04-02T04:44:24.406Z,67.54
2023-04-02T04:47:10.241Z,70.75
2023-04-02T04:49:47.354Z,72.35
2023-04-02T04:52:24.877Z,71.05
2023-04-02T04:54:51.984Z,69.48
2023-04-02T04:57:36.109Z,68.37
2023-04-02T05:00:22.585Z,66.75
2023-04-02T05:03:21.743Z,65.71
2023-04-02T05:05:49.361Z,65.58
2023-04-02T05:08:30.510Z,65.46
2023-04-02T05:11:04.813Z,65.52
2023-04-02T05:13:41.827Z,65.36
2023-04-02T05:16:21.664Z,64.98
2023-04-02T05:19:08.292Z,65.01
2023-04-02T05:22:17.725Z,63.93
2023-04-02T05:24:55.300Z,64.45
2023-04-02T05:27:37.804Z,64.78
2023-04-02T05:30:15.728Z,64.15
2023-04-02T05:32:50.486Z,64.84
2023-04-02T05:35:21.672Z,64.19
2023-04-02T05:37:48.877Z,63.38
2023-04-02T05:40:28.324Z,64.61
2023-04-02T05:42:59.219Z,64.35
2023-04-02T05:45:36.556Z,64.24
2023-04-02T05:48:19.994Z,64.74
2023-04-02T05:50:55.951Z,63.02
2023-04-02T05:53:37.536Z,62.54
2023-04-02T05:56:22.075Z,63.48
2023-04-02T05:59:07.261Z,66.32
2023-04-02T06:01:59.094Z,67.30
2023-04-02T06:04:56.137Z,68.41
2023-04-02T06:07:41.694Z,66.53
2023-04-02T06:10:19.065Z,66.95
2023-04-02T06:12:53.779Z,66.24
2023-04-02T06:15:23.709Z,65.17
2023-04-02T06:18:14.530Z,65.28
2023-04-02T06:20:41.154Z,64.55
2023-04-02T06:23:19.766Z,63.28
2023-04-02T06:26:24.841Z,62.15
2023-04-02T06:29:37.669Z,62.01
2023-04-02T06:32:07.491Z,62.58
2023-04-02T06:34:38.786Z,63.31
2023-04-02T06:37:24.909Z,62.75
2023-04-02T06:39:51.672Z,62.53
2023-04-02T06:42:40.132Z,62.19
2023-04-02T06:45:23.666Z,62.79
2023-04-02T06:47:55.307Z,62.90
2023-04-02T06:50:31.602Z,62.24
2023-04-02T06:53:02.286Z,62.40
2023-04-02T06:55:39.966Z,61.22
2023-04-02T06:58:06.872Z,61.65
2023-04-02T07:00:43.712Z,63.65
2023-04-02T07:03:23.057Z,62.26
2023-04-02T07:05:49.784Z,62.19
2023-04-02T07:08:17.805Z,65.34
2023-04-02T07:10:44.565Z,67.11
2023-04-02T07:13:29.015Z,66.50
2023-04-02T07:15:55.723Z,65.42
2023-04-02T07:18:31.563Z,64.19
2023-04-02T07:20:58.997Z,65.79
2023-04-02T07:23:26.456Z,65.63
2023-04-02T07:25:54.554Z,65.36
2023-04-02T07:28:22.931Z,64.36
2023-04-02T07:30:51.485Z,65.73
2023-04-02T07:33:22.157Z,66.07
2023-04-02T07:35:50.567Z,66.48
2023-04-02T07:38:19.560Z,65.72
2023-04-02T07:40:46.409Z,65.38
2023-04-02T07:43:13.122Z,67.35
2023-04-02T07:45:39.761Z,68.59
2023-04-02T07:48:08.168Z,69.47
2023-04-02T07:50:35.356Z,71.37
2023-04-02T07:53:02.950Z,69.40
2023-04-02T07:55:29.643Z,67.21
2023-04-02T07:57:59.391Z,68.56
2023-04-02T08:00:27.459Z,65.80
2023-04-02T08:02:54.270Z,64.49
2023-04-02T08:05:21.086Z,63.49
2023-04-02T08:07:56.041Z,63.51
2023-04-02T08:10:23.138Z,64.98
2023-04-02T08:12:49.794Z,63.04
2023-04-02T08:15:17.370Z,61.43
2023-04-02T08:17:44.601Z,62.90
2023-04-02T08:20:19.378Z,61.35
2023-04-02T08:22:47.165Z,61.99
2023-04-02T08:25:14.065Z,62.20
2023-04-02T08:27:41.055Z,62.31
2023-04-02T08:30:09.374Z,60.35
2023-04-02T08:32:36.191Z,60.61
2023-04-02T08:35:05.496Z,62.11
2023-04-02T08:37:32.251Z,63.01
2023-04-02T08:39:58.858Z,64.41
2023-04-02T08:42:44.737Z,64.43
2023-04-02T08:45:38.129Z,64.27
2023-04-02T08:48:05.752Z,64.76
2023-04-02T08:50:37.230Z,62.74
2023-04-02T08:53:10.966Z,56.08
2023-04-02T08:56:02.074Z,60.36
2023-04-02T08:58:44.283Z,57.46
2023-04-02T09:01:45.300Z,59.38
2023-04-02T09:04:25.160Z,59.48
2023-04-02T09:06:55.038Z,56.49
2023-04-02T09:09:23.561Z,56.89
2023-04-02T09:12:03.787Z,58.80
2023-04-02T09:15:04.309Z,58.05
2023-04-02T09:17:42.703Z,59.07
2023-04-02T09:20:21.395Z,59.75
2023-04-02T09:22:51.130Z,58.31
2023-04-02T09:25:22.681Z,59.64
2023-04-02T09:27:53.043Z,60.14
2023-04-02T09:30:28.772Z,61.82
2023-04-02T09:32:59.260Z,62.42
2023-04-02T09:35:29.032Z,60.51
2023-04-02T09:38:20.888Z,60.82
2023-04-02T09:41:08.961Z,61.58
2023-04-02T09:43:37.884Z,61.31
2023-04-02T09:46:13.596Z,62.28
2023-04-02T09:48:55.236Z,63.03
2023-04-02T09:51:30.459Z,59.89
2023-04-02T09:54:02.843Z,60.47
2023-04-02T09:56:32.116Z,60.64
2023-04-02T09:59:15.158Z,62.12
2023-04-02T10:01:55.765Z,60.22
2023-04-02T10:04:45.592Z,59.41
2023-04-02T10:07:36.079Z,60.59
2023-04-02T10:10:32.693Z,59.86
2023-04-02T10:13:23.610Z,57.44
2023-04-02T10:16:11.470Z,60.19
2023-04-02T10:19:10.790Z,59.69
2023-04-02T10:21:41.494Z,57.82
2023-04-02T10:24:14.370Z,58.21
2023-04-02T10:27:18.551Z,59.22
2023-04-02T10:30:01.210Z,59.54
2023-04-02T10:32:51.220Z,61.54
2023-04-02T10:35:24.546Z,62.19
2023-04-02T10:38:06.297Z,61.97
2023-04-02T10:40:57.112Z,61.44
2023-04-02T10:43:38.969Z,63.82
2023-04-02T10:46:30.247Z,61.67
2023-04-02T10:49:24.682Z,63.83
2023-04-02T10:52:02.224Z,62.71
2023-04-02T10:54:28.901Z,63.95
2023-04-02T10:57:08.897Z,63.18
2023-04-02T10:59:49.208Z,65.06
2023-04-02T11:02:31.081Z,65.13
2023-04-02T11:05:06.564Z,66.19
2023-04-02T11:07:52.989Z,62.75
2023-04-02T11:10:21.225Z,64.61
2023-04-02T11:12:59.410Z,64.61
2023-04-02T11:15:27.437Z,65.36
2023-04-02T11:17:54.280Z,65.61
2023-04-02T11:20:49.067Z,67.21
2023-04-02T11:23:20.728Z,65.52
2023-04-02T11:25:48.528Z,64.10
2023-04-02T11:28:32.807Z,65.06
2023-04-02T11:31:00.013Z,64.17
2023-04-02T11:33:38.421Z,63.79
2023-04-02T11:36:44.578Z,64.41
2023-04-02T11:39:17.384Z,62.67
2023-04-02T11:42:00.810Z,62.87
2023-04-02T11:44:28.549Z,61.21
2023-04-02T11:47:22.759Z,62.17
2023-04-02T11:49:55.920Z,63.96
2023-04-02T11:52:50.800Z,63.30
2023-04-02T11:55:22.498Z,62.89
2023-04-02T11:58:07.837Z,61.08
2023-04-02T12:00:52.996Z,61.01
2023-04-02T12:03:53.144Z,60.59
2023-04-02T12:06:22.577Z,62.96
2023-04-02T12:09:18.330Z,63.89
2023-04-02T12:11:45.650Z,65.08
2023-04-02T12:14:46.874Z,65.57
2023-04-02T12:17:20.118Z,63.69
2023-04-02T12:19:53.372Z,65.85
2023-04-02T12:22:27.302Z,65.76
2023-04-02T12:24:58.841Z,66.04
2023-04-02T12:27:28.817Z,67.24
2023-04-02T12:30:11.334Z,65.33
2023-04-02T12:32:38.140Z,62.64
2023-04-02T12:35:30.399Z,64.38
2023-04-02T12:37:59.706Z,60.38
2023-04-02T12:40:27.785Z,63.94
2023-04-02T12:42:54.471Z,62.95
2023-04-02T12:45:23.431Z,60.15
2023-04-02T12:47:50.630Z,61.92
2023-04-02T12:50:18.226Z,63.08
2023-04-02T12:52:47.976Z,62.55
2023-04-02T12:55:24.294Z,62.69
2023-04-02T12:57:59.113Z,61.95
2023-04-02T13:00:25.718Z,62.28
2023-04-02T13:03:00.974Z,63.05
2023-04-02T13:05:59.955Z,61.05
2023-04-02T13:08:37.372Z,61.80
2023-04-02T13:11:06.155Z,61.23
2023-04-02T13:13:39.559Z,60.54
2023-04-02T13:16:14.977Z,60.06
2023-04-02T13:18:44.365Z,58.65
2023-04-02T13:21:16.757Z,59.34
2023-04-02T13:23:44.707Z,60.25
2023-04-02T13:26:21.343Z,59.88
2023-04-02T13:29:22.478Z,58.68
2023-04-02T13:31:49.908Z,58.38
2023-04-02T13:34:17.638Z,57.80
2023-04-02T13:36:45.130Z,59.32
2023-04-02T13:39:12.223Z,60.52
2023-04-02T13:41:45.263Z,60.54
2023-04-02T13:44:24.411Z,57.59
2023-04-02T13:46:52.601Z,57.73
2023-04-02T13:49:19.644Z,58.25
2023-04-02T13:51:52.451Z,58.62
2023-04-02T13:54:28.683Z,57.70
2023-04-02T13:56:56.642Z,56.84
2023-04-02T13:59:24.897Z,55.96
2023-04-02T14:01:57.714Z,57.54
2023-04-02T14:04:29.753Z,57.17
2023-04-02T14:06:59.045Z,57.35
2023-04-02T14:09:31.728Z,59.28
2023-04-02T14:12:21.748Z,57.29
2023-04-02T14:14:59.881Z,58.37
2023-04-02T14:17:50.880Z,56.40
2023-04-02T14:20:20.426Z,55.72
2023-04-02T14:23:09.216Z,56.07
2023-04-02T14:25:56.753Z,57.61
2023-04-02T14:29:07.916Z,55.22
2023-04-02T14:31:46.987Z,56.92
2023-04-02T14:34:30.578Z,59.56
2023-04-02T14:37:22.938Z,58.73
2023-04-02T14:40:45.930Z,62.55
2023-04-02T14:43:32.904Z,60.57
2023-04-02T14:46:03.787Z,60.77
2023-04-02T14:52:06.179Z,57.52
2023-04-02T14:55:02.578Z,56.31
2023-04-02T14:57:41.076Z,55.33
2023-04-02T15:00:24.412Z,55.84
2023-04-02T15:03:07.815Z,57.16
2023-04-02T15:05:47.915Z,56.53
2023-04-02T15:11:42.245Z,55.34
2023-04-02T15:14:11.599Z,57.01
2023-04-02T15:16:38.401Z,56.79
2023-04-02T15:19:15.037Z,57.27
2023-04-02T15:22:35.788Z,61.07
2023-04-02T15:25:18.539Z,60.05
2023-04-02T15:28:01.873Z,60.75
2023-04-02T15:30:34.815Z,60.05
2023-04-02T15:33:22.349Z,59.90
2023-04-02T15:36:18.678Z,60.90
2023-04-02T15:39:05.750Z,57.82
2023-04-02T15:42:06.324Z,57.76
2023-04-02T15:45:17.229Z,57.64
2023-04-02T15:48:41.397Z,59.33
2023-04-02T15:52:03.007Z,60.16
2023-04-02T15:55:07.371Z,59.92
2023-04-02T15:58:34.692Z,58.44
2023-04-02T16:01:38.900Z,57.35
2023-04-02T16:04:21.116Z,57.76
2023-04-02T16:07:12.839Z,60.00
2023-04-02T16:09:58.272Z,55.77
2023-04-02T16:12:31.836Z,56.09
2023-04-02T16:15:17.402Z,58.54
2023-04-02T16:18:13.323Z,57.08
2023-04-02T16:20:56.857Z,57.58
2023-04-02T16:24:09.192Z,58.93
2023-04-02T16:27:02.157Z,56.67
2023-04-02T16:29:58.882Z,58.18
2023-04-02T16:32:50.313Z,60.47
2023-04-02T16:35:54.954Z,60.92
2023-04-02T16:38:40.997Z,60.74
2023-04-02T16:41:30.198Z,60.18
2023-04-02T16:44:21.039Z,58.99
2023-04-02T16:47:24.402Z,58.23
2023-04-02T16:50:30.844Z,57.44
2023-04-02T16:53:45.296Z,57.79
2023-04-02T16:56:49.744Z,58.05
2023-04-02T16:59:24.505Z,58.32
2023-04-02T17:02:02.709Z,59.02
2023-04-02T17:04:52.438Z,57.86
2023-04-02T17:07:22.068Z,59.87
2023-04-02T17:09:58.573Z,57.50
2023-04-02T17:12:39.924Z,59.00
2023-04-02T17:15:28.365Z,59.91
2023-04-02T17:18:00.603Z,59.85
2023-04-02T17:20:28.387Z,60.68
2023-04-02T17:22:56.177Z,62.16
2023-04-02T17:25:33.573Z,63.62
2023-04-02T17:28:02.571Z,63.01
2023-04-02T17:30:41.981Z,63.03
2023-04-02T17:33:17.676Z,62.44
2023-04-02T17:35:53.581Z,62.26
2023-04-02T17:38:35.463Z,60.17
2023-04-02T17:41:14.554Z,60.51
2023-04-02T17:44:06.379Z,60.15
2023-04-02T17:46:48.491Z,59.88
2023-04-02T17:49:41.631Z,59.73
2023-04-02T17:52:17.298Z,57.89
2023-04-02T17:55:14.942Z,57.62
2023-04-02T17:57:44.247Z,57.48
2023-04-02T18:00:33.123Z,57.09
2023-04-02T18:02:59.820Z,57.26
2023-04-02T18:05:44.662Z,57.71
2023-04-02T18:08:34.809Z,59.39
2023-04-02T18:11:24.275Z,61.07
2023-04-02T18:14:00.919Z,61.11
2023-04-02T18:16:52.421Z,61.65
2023-04-02T18:19:25.884Z,60.13
2023-04-02T18:22:01.401Z,59.30
2023-04-02T18:24:30.956Z,60.73
2023-04-02T18:27:35.690Z,60.54
2023-04-02T18:30:20.924Z,59.69
2023-04-02T18:32:56.540Z,60.35
2023-04-02T18:36:10.894Z,61.12
2023-04-02T18:38:57.602Z,59.49
2023-04-02T18:42:05.380Z,59.20
2023-04-02T18:44:47.855Z,58.94
2023-04-02T18:47:22.373Z,59.24
2023-04-02T18:50:11.825Z,57.95
2023-04-02T18:52:40.898Z,58.87
2023-04-02T18:55:34.143Z,59.34
2023-04-02T18:58:38.424Z,58.77
2023-04-02T19:01:11.434Z,58.35
2023-04-02T19:03:50.440Z,58.63
2023-04-02T19:06:23.845Z,59.02
2023-04-02T19:09:00.263Z,59.28
2023-04-02T19:11:27.714Z,59.20
2023-04-02T19:14:01.957Z,59.15
2023-04-02T19:16:40.645Z,59.06
2023-04-02T19:19:16.463Z,58.84
2023-04-02T19:22:15.378Z,58.20
2023-04-02T19:25:07.968Z,58.45
2023-04-02T19:28:04.477Z,58.61
2023-04-02T19:30:50.045Z,58.31
2023-04-02T19:33:41.444Z,59.17
2023-04-02T19:36:44.765Z,59.39
2023-04-02T19:39:17.129Z,60.73
2023-04-02T19:41:45.168Z,62.61
2023-04-02T19:44:13.897Z,61.47
2023-04-02T19:46:41.495Z,61.09
2023-04-02T19:49:27.031Z,60.77
2023-04-02T19:51:54.437Z,61.04
2023-04-02T19:54:21.510Z,60.81
2023-04-02T19:56:48.808Z,60.84
2023-04-02T19:59:18.024Z,60.59
2023-04-02T20:01:46.237Z,60.37
2023-04-02T20:04:17.858Z,59.67
2023-04-02T20:06:44.573Z,61.58
2023-04-02T20:09:11.255Z,60.02
2023-04-02T20:11:38.537Z,59.92
2023-04-02T20:14:05.886Z,59.46
2023-04-02T20:16:33.575Z,59.79
2023-04-02T20:19:00.259Z,60.12
2023-04-02T20:21:27.018Z,59.54
2023-04-02T20:23:55.033Z,60.66
2023-04-02T20:26:22.036Z,59.68
2023-04-02T20:28:48.823Z,60.80
2023-04-02T20:31:18.244Z,61.54
2023-04-02T20:33:45.665Z,64.09
2023-04-02T20:36:16.054Z,66.21
2023-04-02T20:38:43.581Z,63.69
2023-04-02T20:41:10.258Z,62.48
2023-04-02T20:43:37.558Z,61.42
2023-04-02T20:46:05.636Z,60.97
2023-04-02T20:48:35.735Z,60.04
2023-04-02T20:51:04.698Z,59.70
2023-04-02T20:53:33.877Z,59.95
2023-04-02T20:56:09.045Z,60.54
2023-04-02T20:58:37.213Z,60.37
2023-04-02T21:01:24.367Z,61.22
2023-04-02T21:03:56.293Z,61.53
2023-04-02T21:06:24.925Z,61.75
2023-04-02T21:08:52.695Z,61.94
2023-04-02T21:11:20.030Z,61.63
2023-04-02T21:13:46.679Z,61.34
2023-04-02T21:16:23.424Z,59.74
2023-04-02T21:18:52.867Z,60.76
2023-04-02T21:21:20.831Z,60.95
2023-04-02T21:23:47.840Z,60.10
2023-04-02T21:26:17.512Z,59.71
2023-04-02T21:28:45.677Z,60.38
2023-04-02T21:31:17.857Z,60.11
2023-04-02T21:33:50.080Z,58.40
2023-04-02T21:36:25.883Z,58.89
2023-04-02T21:39:20.993Z,58.04
2023-04-02T21:41:50.543Z,58.93
2023-04-02T21:44:19.374Z,60.95
2023-04-02T21:46:46.393Z,62.50
2023-04-02T21:49:16.936Z,65.62
2023-04-02T21:51:45.637Z,64.31
2023-04-02T21:54:13.162Z,64.22
2023-04-02T21:56:42.559Z,62.85
2023-04-02T21:59:11.169Z,61.94
2023-04-02T22:01:47.360Z,60.38
2023-04-02T22:04:20.445Z,60.41
2023-04-02T22:06:48.579Z,60.84
2023-04-02T22:09:18.595Z,61.39
2023-04-02T22:11:51.631Z,61.93
2023-04-02T22:14:18.449Z,60.92
2023-04-02T22:16:45.200Z,60.75
2023-04-02T22:19:14.749Z,60.88
2023-04-02T22:21:42.041Z,60.43
2023-04-02T22:24:13.464Z,60.49
2023-04-02T22:26:41.216Z,60.91
2023-04-02T22:29:08.203Z,62.44
2023-04-02T22:31:35.379Z,62.37
2023-04-02T22:34:03.771Z,61.42
2023-04-02T22:36:31.097Z,61.58
2023-04-02T22:39:01.869Z,61.99
2023-04-02T22:41:29.552Z,62.26
2023-04-02T22:43:57.733Z,64.95
2023-04-02T22:46:26.095Z,68.57
2023-04-02T22:48:53.404Z,69.14
2023-04-02T22:51:21.724Z,70.61
2023-04-02T22:53:49.686Z,69.25
2023-04-02T22:56:19.708Z,67.28
2023-04-02T22:58:46.356Z,65.19
2023-04-02T23:01:22.894Z,64.06
2023-04-02T23:03:53.490Z,64.34
2023-04-02T23:06:20.154Z,64.04
2023-04-02T23:08:47.262Z,63.82
2023-04-02T23:11:19.873Z,65.88
2023-04-02T23:13:49.267Z,64.18
2023-04-02T23:16:17.697Z,62.58
2023-04-02T23:18:45.921Z,63.35
2023-04-02T23:21:12.665Z,63.18
2023-04-02T23:23:39.989Z,62.91
2023-04-02T23:26:12.439Z,62.38
2023-04-02T23:28:40.134Z,62.09
2023-04-02T23:31:11.023Z,62.86
2023-04-02T23:33:37.699Z,62.46
2023-04-02T23:36:22.286Z,62.41
2023-04-02T23:38:52.198Z,62.90
2023-04-02T23:41:18.828Z,61.54
2023-04-02T23:43:45.463Z,63.01
2023-04-02T23:46:13.459Z,62.80
2023-04-02T23:48:40.766Z,65.27
2023-04-02T23:51:07.624Z,66.04
2023-04-02T23:53:34.841Z,67.65
2023-04-02T23:56:01.507Z,68.55
2023-04-02T23:58:28.181Z,69.30
